Time;durP1;ratioP1;P1;durP2;ratioP2;P2;SDS_P1;SDS_P2;PMS_P1;PMS_P2;Temp;Humidity;BMP_temperature;BMP_pressure;BME280_temperature;BME280_humidity;BME280_pressure;Samples;Min_cycle;Max_cycle;Signal;HPM_P1;HPM_P2
2021/08/05 00:02:06;;;;;;;;;;;15.10;99.90;;;;;;5056306;28;19924;-80
2021/08/05 00:04:33;;;;;;;;;;;15.10;99.90;;;;;;5055956;28;19920;-79
2021/08/05 00:07:01;;;;;;;;;;;15.10;99.90;;;;;;5056027;28;20258;-78
2021/08/05 00:09:28;;;;;;;;;;;15.00;99.90;;;;;;5056336;28;19921;-78
2021/08/05 00:11:55;;;;;;;;;;;15.00;99.90;;;;;;5056100;28;20019;-79
2021/08/05 00:14:22;;;;;;;;;;;15.00;99.90;;;;;;5055854;28;20365;-77
2021/08/05 00:16:49;;;;;;;;;;;14.90;99.90;;;;;;5056117;28;19927;-78
2021/08/05 00:19:15;;;;;;;;;;;15.00;99.90;;;;;;5055771;28;19920;-78
2021/08/05 00:21:44;;;;;;;;;;;15.00;99.90;;;;;;5055212;28;20198;-77
2021/08/05 00:24:12;;;;;;;;;;;14.90;99.90;;;;;;5055705;28;20365;-78
2021/08/05 00:26:39;;;;;;;;;;;14.90;99.90;;;;;;5055729;28;19924;-78
2021/08/05 00:29:06;;;;;;;;;;;14.90;99.90;;;;;;5055652;28;20343;-78
2021/08/05 00:31:33;;;;;;;;;;;14.90;99.90;;;;;;5055554;28;19931;-78
2021/08/05 00:34:00;;;;;;;;;;;14.90;99.90;;;;;;5055629;28;19931;-79
2021/08/05 00:36:27;;;;;;;;;;;14.90;99.90;;;;;;5055626;28;20370;-78
2021/08/05 00:38:54;;;;;;;;;;;14.80;99.90;;;;;;5055287;28;19925;-78
2021/08/05 00:41:22;;;;;;;;;;;14.80;99.90;;;;;;5055607;28;19925;-78
2021/08/05 00:43:49;;;;;;;;;;;14.80;99.90;;;;;;5055416;28;19925;-78
2021/08/05 00:46:16;;;;;;;;;;;14.80;99.90;;;;;;5055343;28;19947;-77
2021/08/05 00:48:43;;;;;;;;;;;14.80;99.90;;;;;;5055257;28;19925;-79
2021/08/05 00:51:09;;;;;;;;;;;14.80;99.90;;;;;;5055521;28;19925;-77
2021/08/05 00:53:38;;;;;;;;;;;14.80;99.90;;;;;;5055512;28;19951;-78
2021/08/05 00:56:05;;;;;;;;;;;14.70;99.90;;;;;;5055384;28;19935;-78
2021/08/05 00:58:33;;;;;;;;;;;14.70;99.90;;;;;;5055229;28;19924;-78
2021/08/05 01:01:01;;;;;;;;;;;14.70;99.90;;;;;;5055303;28;19951;-77
2021/08/05 01:03:29;;;;;;;;;;;14.70;99.90;;;;;;5055135;28;20366;-79
2021/08/05 01:05:58;;;;;;;;;;;14.70;99.90;;;;;;5054995;28;19936;-77
2021/08/05 01:08:25;;;;;;;;;;;14.60;99.90;;;;;;5054816;28;20007;-79
2021/08/05 01:10:53;;;;;;;;;;;14.60;99.90;;;;;;5054966;28;19928;-77
2021/08/05 01:13:21;;;;;;;;;;;14.60;99.90;;;;;;5054979;28;19925;-77
2021/08/05 01:15:50;;;;;;;;;;;14.60;99.90;;;;;;5054505;28;19928;-77
2021/08/05 01:18:18;;;;;;;;;;;14.60;99.90;;;;;;5055117;28;20309;-78
2021/08/05 01:20:45;;;;;;;;;;;14.50;99.90;;;;;;5055001;28;19924;-77
2021/08/05 01:23:13;;;;;;;;;;;14.50;99.90;;;;;;5054753;28;19924;-77
2021/08/05 01:25:42;;;;;;;;;;;14.50;99.90;;;;;;5054822;28;19924;-77
2021/08/05 01:28:10;;;;;;;;;;;14.50;99.90;;;;;;5054663;28;19935;-77
2021/08/05 01:30:37;;;;;;;;;;;14.50;99.90;;;;;;5054812;28;20282;-77
2021/08/05 01:33:04;;;;;;;;;;;14.50;99.90;;;;;;5054654;28;19925;-77
2021/08/05 01:35:31;;;;;;;;;;;14.50;99.90;;;;;;5054830;28;19925;-77
2021/08/05 01:37:58;;;;;;;;;;;14.50;99.90;;;;;;5055049;28;19940;-77
2021/08/05 01:40:25;;;;;;;;;;;14.40;99.90;;;;;;5054855;28;19925;-79
2021/08/05 01:42:52;;;;;;;;;;;14.40;99.90;;;;;;5054750;28;20391;-79
2021/08/05 01:45:20;;;;;;;;;;;14.40;99.90;;;;;;5054730;28;20368;-79
2021/08/05 01:47:47;;;;;;;;;;;14.40;99.90;;;;;;5055116;28;19929;-79
2021/08/05 01:50:13;;;;;;;;;;;14.30;99.90;;;;;;5054760;28;20363;-78
2021/08/05 01:52:41;;;;;;;;;;;14.30;99.90;;;;;;5054732;28;20372;-77
2021/08/05 01:55:08;;;;;;;;;;;14.30;99.90;;;;;;5054522;28;20247;-77
2021/08/05 01:57:35;;;;;;;;;;;14.30;99.90;;;;;;5054619;28;19924;-77
2021/08/05 02:00:02;;;;;;;;;;;14.30;99.90;;;;;;5054708;28;19925;-77
2021/08/05 02:02:30;;;;;;;;;;;14.30;99.90;;;;;;5054557;28;19928;-77
2021/08/05 02:05:00;;;;;;;;;;;14.30;99.90;;;;;;5054497;28;19929;-77
2021/08/05 02:07:28;;;;;;;;;;;14.30;99.90;;;;;;5054377;28;19935;-76
2021/08/05 02:09:57;;;;;;;;;;;14.20;99.90;;;;;;5054536;28;19924;-77
2021/08/05 02:12:24;;;;;;;;;;;14.20;99.90;;;;;;5054366;28;19925;-77
2021/08/05 02:14:52;;;;;;;;;;;14.30;99.90;;;;;;5054574;28;19935;-77
2021/08/05 02:17:19;;;;;;;;;;;14.30;99.90;;;;;;5054641;28;19925;-78
2021/08/05 02:19:47;;;;;;;;;;;14.20;99.90;;;;;;5054458;28;19928;-78
2021/08/05 02:22:15;;;;;;;;;;;14.20;99.90;;;;;;5054400;28;19924;-78
2021/08/05 02:24:41;;;;;;;;;;;14.30;99.90;;;;;;5054392;28;19935;-79
2021/08/05 02:27:08;;;;;;;;;;;14.30;99.90;;;;;;5056957;28;20346;-78
2021/08/05 02:29:35;;;;;;;;;;;14.30;99.90;;;;;;5057965;28;19925;-79
2021/08/05 02:32:02;;;;;;;;;;;14.30;99.90;;;;;;5058115;28;19935;-78
2021/08/05 02:34:29;;;;;;;;;;;14.30;99.90;;;;;;5057949;28;19929;-79
2021/08/05 02:36:57;;;;;;;;;;;14.30;99.90;;;;;;5058106;28;19999;-81
2021/08/05 02:39:24;;;;;;;;;;;14.30;99.90;;;;;;5057796;28;19931;-78
2021/08/05 02:41:51;;;;;;;;;;;14.20;99.90;;;;;;5058308;28;19932;-79
2021/08/05 02:44:17;;;;;;;;;;;14.30;99.90;;;;;;5057988;28;20239;-79
2021/08/05 02:46:44;;;;;;;;;;;14.30;99.90;;;;;;5057743;28;19925;-80
2021/08/05 02:49:11;;;;;;;;;;;14.30;99.90;;;;;;5058012;28;19925;-78
2021/08/05 02:51:38;;;;;;;;;;;14.30;99.90;;;;;;5057615;28;19925;-80
2021/08/05 02:54:06;;;;;;;;;;;14.30;99.90;;;;;;5057463;28;19924;-79
2021/08/05 02:56:33;;;;;;;;;;;14.30;99.90;;;;;;5057634;28;19935;-78
2021/08/05 02:59:00;;;;;;;;;;;14.30;99.90;;;;;;5057474;28;20350;-78
2021/08/05 03:01:27;;;;;;;;;;;14.30;99.90;;;;;;5057627;28;19943;-78
2021/08/05 03:03:54;;;;;;;;;;;14.30;99.90;;;;;;5057555;28;19936;-79
2021/08/05 03:06:25;;;;;;;;;;;14.30;99.90;;;;;;5057348;28;20396;-80
2021/08/05 03:08:52;;;;;;;;;;;14.30;99.90;;;;;;5057273;28;19928;-79
2021/08/05 03:11:20;;;;;;;;;;;14.30;99.90;;;;;;5057503;28;19925;-79
2021/08/05 03:13:47;;;;;;;;;;;14.30;99.90;;;;;;5057218;28;19924;-79
2021/08/05 03:16:15;;;;;;;;;;;14.30;99.90;;;;;;5057289;28;19966;-78
2021/08/05 03:18:41;;;;;;;;;;;14.30;99.90;;;;;;5057242;28;19935;-79
2021/08/05 03:21:08;;;;;;;;;;;14.30;99.90;;;;;;5056952;28;19925;-79
2021/08/05 03:23:35;;;;;;;;;;;14.30;99.90;;;;;;5057128;28;19925;-79
2021/08/05 03:26:02;;;;;;;;;;;14.20;99.90;;;;;;5057019;28;19925;-78
2021/08/05 03:28:30;;;;;;;;;;;14.20;99.90;;;;;;5056817;28;20387;-78
2021/08/05 03:30:57;;;;;;;;;;;14.30;99.90;;;;;;5056916;28;19936;-78
2021/08/05 03:33:24;;;;;;;;;;;14.30;99.90;;;;;;5056701;28;19985;-77
2021/08/05 03:35:51;;;;;;;;;;;14.30;99.90;;;;;;5056639;28;19936;-78
2021/08/05 03:38:18;;;;;;;;;;;14.30;99.90;;;;;;5056451;28;19925;-79
2021/08/05 03:40:44;;;;;;;;;;;14.30;99.90;;;;;;5056568;28;19925;-78
2021/08/05 03:43:11;;;;;;;;;;;14.30;99.90;;;;;;5056619;28;19936;-79
2021/08/05 03:45:39;;;;;;;;;;;14.30;99.90;;;;;;5056633;28;19925;-79
2021/08/05 03:48:06;;;;;;;;;;;14.30;99.90;;;;;;5056756;28;19935;-77
2021/08/05 03:50:33;;;;;;;;;;;14.30;99.90;;;;;;5056405;28;19924;-78
2021/08/05 03:53:00;;;;;;;;;;;14.30;99.90;;;;;;5056416;28;20385;-78
2021/08/05 03:55:27;;;;;;;;;;;14.30;99.90;;;;;;5056306;28;19932;-78
2021/08/05 03:57:53;;;;;;;;;;;14.30;99.90;;;;;;5056421;28;20262;-78
2021/08/05 04:00:20;;;;;;;;;;;14.30;99.90;;;;;;5056067;28;19935;-78
2021/08/05 04:02:49;;;;;;;;;;;14.30;99.90;;;;;;5056235;28;19925;-77
2021/08/05 04:05:15;;;;;;;;;;;14.30;99.90;;;;;;5056043;28;19925;-77
2021/08/05 04:07:42;;;;;;;;;;;14.30;99.90;;;;;;5055964;28;20263;-77
2021/08/05 04:10:10;;;;;;;;;;;14.30;99.90;;;;;;5056077;28;19929;-77
2021/08/05 04:12:37;;;;;;;;;;;14.30;99.90;;;;;;5055965;28;19935;-77
2021/08/05 04:15:04;;;;;;;;;;;14.30;99.90;;;;;;5055897;28;19925;-77
2021/08/05 04:17:30;;;;;;;;;;;14.30;99.90;;;;;;5055945;28;19951;-79
2021/08/05 04:19:59;;;;;;;;;;;14.30;99.90;;;;;;5055769;28;19925;-78
2021/08/05 04:22:25;;;;;;;;;;;14.30;99.90;;;;;;5056038;28;19925;-80
2021/08/05 04:24:52;;;;;;;;;;;14.30;99.90;;;;;;5055670;28;20358;-80
2021/08/05 04:27:19;;;;;;;;;;;14.30;99.90;;;;;;5055764;28;19948;-78
2021/08/05 04:29:46;;;;;;;;;;;14.30;99.90;;;;;;5055654;28;19940;-80
2021/08/05 04:32:13;;;;;;;;;;;14.30;99.90;;;;;;5055865;28;20277;-77
2021/08/05 04:34:40;;;;;;;;;;;14.40;99.90;;;;;;5055541;28;19925;-79
2021/08/05 04:37:08;;;;;;;;;;;14.30;99.90;;;;;;5055785;28;19929;-77
2021/08/05 04:39:35;;;;;;;;;;;14.30;99.90;;;;;;5055338;28;19932;-78
2021/08/05 04:42:01;;;;;;;;;;;14.30;99.90;;;;;;5055685;28;19924;-79
2021/08/05 04:44:28;;;;;;;;;;;14.30;99.90;;;;;;5055486;28;19925;-76
2021/08/05 04:46:55;;;;;;;;;;;14.20;99.90;;;;;;5055293;28;19925;-79
2021/08/05 04:49:22;;;;;;;;;;;14.20;99.90;;;;;;5054530;28;20384;-76
2021/08/05 04:51:53;;;;;;;;;;;14.20;99.90;;;;;;5055323;28;19924;-77
2021/08/05 04:54:21;;;;;;;;;;;14.20;99.90;;;;;;5055271;28;20366;-76
2021/08/05 04:56:48;;;;;;;;;;;14.20;99.90;;;;;;5055247;28;19933;-78
2021/08/05 04:59:15;;;;;;;;;;;14.10;99.90;;;;;;5055191;28;20023;-79
2021/08/05 05:01:43;;;;;;;;;;;14.10;99.90;;;;;;5055016;28;20255;-79
2021/08/05 05:04:10;;;;;;;;;;;14.10;99.90;;;;;;5055124;28;19928;-78
2021/08/05 05:06:37;;;;;;;;;;;14.10;99.90;;;;;;5054946;28;19935;-77
2021/08/05 05:09:04;;;;;;;;;;;14.10;99.90;;;;;;5055175;28;19935;-78
2021/08/05 05:11:32;;;;;;;;;;;14.10;99.90;;;;;;5054972;28;20251;-81
2021/08/05 05:13:59;;;;;;;;;;;14.10;99.90;;;;;;5054988;28;19931;-77
2021/08/05 05:16:26;;;;;;;;;;;14.10;99.90;;;;;;5054842;28;19925;-78
2021/08/05 05:18:52;;;;;;;;;;;14.10;99.90;;;;;;5054887;28;20390;-79
2021/08/05 05:21:19;;;;;;;;;;;14.10;99.90;;;;;;5054869;28;19924;-78
2021/08/05 05:23:46;;;;;;;;;;;14.10;99.90;;;;;;5054879;28;19929;-78
2021/08/05 05:26:13;;;;;;;;;;;14.20;99.90;;;;;;5054821;28;19943;-78
2021/08/05 05:28:41;;;;;;;;;;;14.20;99.90;;;;;;5054785;28;19931;-78
2021/08/05 05:31:08;;;;;;;;;;;14.10;99.90;;;;;;5054755;28;19935;-79
2021/08/05 05:33:35;;;;;;;;;;;14.20;99.90;;;;;;5055303;28;19925;-79
2021/08/05 05:36:02;;;;;;;;;;;14.20;99.90;;;;;;5055021;28;19925;-80
2021/08/05 05:38:29;;;;;;;;;;;14.20;99.90;;;;;;5054979;28;20358;-80
2021/08/05 05:40:55;;;;;;;;;;;14.30;99.90;;;;;;5054862;28;19924;-79
2021/08/05 05:43:22;;;;;;;;;;;14.30;99.90;;;;;;5054715;28;19928;-80
2021/08/05 05:45:50;;;;;;;;;;;14.40;99.90;;;;;;5055047;28;20231;-80
2021/08/05 05:48:17;;;;;;;;;;;14.40;99.90;;;;;;5054881;28;19925;-78
2021/08/05 05:50:44;;;;;;;;;;;14.50;99.90;;;;;;5055017;28;19925;-80
2021/08/05 05:53:11;;;;;;;;;;;14.60;99.90;;;;;;5054810;28;19929;-80
2021/08/05 05:55:40;;;;;;;;;;;14.60;99.90;;;;;;5054646;28;19925;-78
2021/08/05 05:58:06;;;;;;;;;;;14.70;99.90;;;;;;5054733;28;19925;-81
2021/08/05 06:00:33;;;;;;;;;;;14.80;99.90;;;;;;5054731;28;20361;-80
2021/08/05 06:03:02;;;;;;;;;;;14.80;99.90;;;;;;5058736;28;19936;-79
2021/08/05 06:05:29;;;;;;;;;;;14.90;99.90;;;;;;5058672;28;19924;-77
2021/08/05 06:07:56;;;;;;;;;;;14.90;99.90;;;;;;5058181;28;19935;-78
2021/08/05 06:10:23;;;;;;;;;;;15.00;99.90;;;;;;5058421;28;19925;-78
2021/08/05 06:12:50;;;;;;;;;;;15.00;99.90;;;;;;5058252;28;19925;-78
2021/08/05 06:15:17;;;;;;;;;;;15.00;99.90;;;;;;5058669;28;19924;-79
2021/08/05 06:17:45;;;;;;;;;;;15.10;99.90;;;;;;5058188;28;19925;-78
2021/08/05 06:20:14;;;;;;;;;;;15.10;99.90;;;;;;5058014;28;19951;-80
2021/08/05 06:22:42;;;;;;;;;;;15.20;99.90;;;;;;5058184;28;19932;-80
2021/08/05 06:25:09;;;;;;;;;;;15.20;99.90;;;;;;5058020;28;19925;-80
2021/08/05 06:27:36;;;;;;;;;;;15.20;99.90;;;;;;5058409;28;19933;-80
2021/08/05 06:30:03;;;;;;;;;;;15.30;99.90;;;;;;5057899;28;20255;-79
2021/08/05 06:32:30;;;;;;;;;;;15.30;99.90;;;;;;5058019;28;20263;-78
2021/08/05 06:34:57;;;;;;;;;;;15.30;99.90;;;;;;5058238;28;20266;-80
2021/08/05 06:37:25;;;;;;;;;;;15.40;99.90;;;;;;5057947;28;19935;-79
2021/08/05 06:39:53;;;;;;;;;;;15.50;99.90;;;;;;5057830;28;19933;-78
2021/08/05 06:42:20;;;;;;;;;;;15.70;99.90;;;;;;5057981;28;19971;-79
2021/08/05 06:44:46;;;;;;;;;;;16.00;99.90;;;;;;5057626;28;20389;-79
2021/08/05 06:47:13;;;;;;;;;;;16.50;99.90;;;;;;5057815;28;19924;-79
2021/08/05 06:49:40;;;;;;;;;;;17.10;99.90;;;;;;5057824;28;19924;-79
2021/08/05 06:52:07;;;;;;;;;;;17.30;99.90;;;;;;5057503;28;20385;-75
2021/08/05 06:54:35;;;;;;;;;;;17.70;99.90;;;;;;5057429;28;19925;-75
2021/08/05 06:57:02;;;;;;;;;;;18.90;99.90;;;;;;5057505;28;19928;-75
2021/08/05 06:59:29;;;;;;;;;;;19.60;99.90;;;;;;5057723;28;19929;-75
2021/08/05 07:01:56;;;;;;;;;;;19.80;99.90;;;;;;5057516;28;19924;-76
2021/08/05 07:04:23;;;;;;;;;;;20.20;99.90;;;;;;5057468;28;20301;-76
2021/08/05 07:06:49;;;;;;;;;;;19.90;99.90;;;;;;5057151;28;19925;-75
2021/08/05 07:09:16;;;;;;;;;;;19.50;99.90;;;;;;5057486;28;19924;-75
2021/08/05 07:11:45;;;;;;;;;;;19.20;99.90;;;;;;5057588;28;19965;-75
2021/08/05 07:14:11;;;;;;;;;;;18.90;99.90;;;;;;5056223;28;19929;-75
2021/08/05 07:16:38;;;;;;;;;;;18.50;99.90;;;;;;5057271;28;19924;-75
2021/08/05 07:19:05;;;;;;;;;;;18.10;99.90;;;;;;5057035;28;20279;-75
2021/08/05 07:21:32;;;;;;;;;;;17.60;99.90;;;;;;5056917;28;19929;-76
2021/08/05 07:23:59;;;;;;;;;;;17.40;99.90;;;;;;5057004;28;19925;-75
2021/08/05 07:26:25;;;;;;;;;;;17.40;99.90;;;;;;5057105;28;20277;-76
2021/08/05 07:28:54;;;;;;;;;;;18.10;99.90;;;;;;5056907;28;19933;-78
2021/08/05 07:31:21;;;;;;;;;;;19.00;99.90;;;;;;5056973;28;19924;-79
2021/08/05 07:33:50;;;;;;;7.05;3.47;;;20.60;99.90;;;;;;5055314;28;20407;-79
2021/08/05 07:36:17;;;;;;;4.63;3.25;;;22.80;99.90;;;;;;5056379;28;20053;-75
2021/08/05 07:38:46;;;;;;;;;;;25.10;99.90;;;;;;5057765;28;20163;-79
2021/08/05 07:41:15;;;;;;;;;;;26.90;99.90;;;;;;5076458;28;20405;-79
2021/08/05 07:43:43;;;;;;;6.47;3.22;;;28.50;99.70;;;;;;5075379;28;20427;-80
2021/08/05 07:46:13;;;;;;;4.50;2.53;;;30.00;99.90;;;;;;5075932;28;20389;-80
2021/08/05 07:48:41;;;;;;;4.25;2.50;;;31.20;95.60;;;;;;5076247;28;20466;-80
2021/08/05 07:51:10;;;;;;;5.00;2.10;;;32.00;86.20;;;;;;5075921;28;20424;-80
2021/08/05 07:53:38;;;;;;;4.65;2.20;;;32.00;65.60;;;;;;5075878;28;20059;-81
2021/08/05 07:56:06;;;;;;;4.57;2.10;;;32.70;68.10;;;;;;5075882;28;20049;-82
2021/08/05 07:58:33;;;;;;;3.03;1.55;;;33.30;61.30;;;;;;5075854;28;20052;-81
2021/08/05 08:01:00;;;;;;;2.08;1.65;;;33.20;61.60;;;;;;5076022;28;20454;-78
2021/08/05 08:03:28;;;;;;;26.52;17.85;;;33.00;57.00;;;;;;5075970;28;20454;-78
2021/08/05 08:05:56;;;;;;;46.88;33.38;;;32.40;55.60;;;;;;5075533;28;20066;-77
2021/08/05 08:08:23;;;;;;;63.80;38.75;;;32.20;57.30;;;;;;5075653;28;20064;-77
2021/08/05 08:10:50;;;;;;;20.58;14.02;;;31.10;57.00;;;;;;5075261;28;20055;-78
2021/08/05 08:13:27;;;;;;;183.02;99.68;;;29.30;60.00;;;;;;5075548;28;20044;-78
2021/08/05 08:15:58;;;;;;;5.40;4.20;;;27.60;64.00;;;;;;5075713;28;20053;-77
2021/08/05 08:18:28;;;;;;;6.28;3.35;;;26.00;72.30;;;;;;5075626;28;20060;-77
2021/08/05 08:20:56;;;;;;;10.93;4.78;;;24.60;89.80;;;;;;5075506;28;20052;-77
2021/08/05 08:23:25;;;;;;;3.95;2.67;;;23.50;95.90;;;;;;5075354;28;20072;-79
2021/08/05 08:25:53;;;;;;;4.10;2.22;;;22.50;99.90;;;;;;5049227;28;20068;-79
2021/08/05 08:28:21;;;;;;;5.32;2.45;;;21.70;99.90;;;;;;5095612;28;20044;-78
2021/08/05 08:30:48;;;;;;;10.80;3.78;;;21.10;99.90;;;;;;5095393;28;20052;-78
2021/08/05 08:33:18;;;;;;;3.67;2.75;;;20.60;99.90;;;;;;5095427;28;20369;-78
2021/08/05 08:35:48;;;;;;;4.30;2.75;;;20.20;99.90;;;;;;5070288;28;20068;-78
2021/08/05 08:38:17;;;;;;;5.15;2.92;;;20.00;99.90;;;;;;5054466;28;20135;-78
2021/08/05 08:40:45;;;;;;;6.25;3.90;;;19.80;99.90;;;;;;5054450;28;20048;-79
2021/08/05 08:43:13;;;;;;;6.38;2.92;;;19.80;99.90;;;;;;5055056;28;20059;-79
2021/08/05 08:45:40;;;;;;;4.10;2.58;;;19.70;99.90;;;;;;5055459;28;20118;-79
2021/08/05 08:48:07;;;;;;;5.38;2.85;;;19.60;99.90;;;;;;5055243;28;20107;-77
2021/08/05 08:50:34;;;;;;;7.60;5.00;;;19.70;99.90;;;;;;5054971;28;20056;-83
2021/08/05 08:53:05;;;;;;;9.43;3.95;;;19.80;99.90;;;;;;5056293;28;20048;-78
2021/08/05 08:55:34;;;;;;;;;;;19.90;99.90;;;;;;5055401;28;20394;-77
2021/08/05 08:58:02;;;;;;;;;;;20.00;99.90;;;;;;5055175;28;19935;-78
2021/08/05 09:00:31;;;;;;;5.00;2.97;;;20.10;99.90;;;;;;5054074;28;20785;-76
2021/08/05 09:03:01;;;;;;;;;;;20.10;99.90;;;;;;5055527;28;20045;-77
2021/08/05 09:05:29;;;;;;;;;;;20.00;99.90;;;;;;5055149;28;19928;-77
2021/08/05 09:07:58;;;;;;;;;;;19.90;99.90;;;;;;5056012;28;19931;-78
2021/08/05 09:10:28;;;;;;;;;;;19.90;99.90;;;;;;5075046;28;19921;-76
2021/08/05 09:12:57;;;;;;;;;;;19.80;99.90;;;;;;5075045;28;19920;-76
2021/08/05 09:15:35;;;;;;;;;;;19.70;99.90;;;;;;5075054;28;19927;-76
2021/08/05 09:18:03;;;;;;;;;;;19.60;99.90;;;;;;5075025;28;19921;-76
2021/08/05 09:20:31;;;;;;;;;;;19.50;99.90;;;;;;5074695;28;20019;-76
2021/08/05 09:22:59;;;;;;;;;;;19.40;99.90;;;;;;5074819;28;19926;-76
2021/08/05 09:25:32;;;;;;;;;;;19.40;99.90;;;;;;5074903;28;19978;-76
2021/08/05 09:28:01;;;;;;;;;;;19.40;99.90;;;;;;5074959;28;19921;-76
2021/08/05 09:30:32;;;;;;;;;;;19.50;99.90;;;;;;5074963;28;19920;-76
2021/08/05 09:33:06;;;;;;;;;;;19.50;99.90;;;;;;5075082;28;19920;-76
2021/08/05 09:35:37;;;;;;;;;;;19.50;99.90;;;;;;5075049;28;19982;-76
2021/08/05 09:38:23;;;;;;;;;;;19.40;99.90;;;;;;5079183;28;19932;-76
2021/08/05 09:40:53;;;;;;;;;;;19.40;99.90;;;;;;5078617;28;19920;-77
2021/08/05 09:43:25;;;;;;;;;;;19.40;99.90;;;;;;5078762;28;19920;-77
2021/08/05 09:45:53;;;;;;;;;;;19.30;99.90;;;;;;5079221;28;19920;-81
2021/08/05 09:48:38;;;;;;;;;;;19.30;99.90;;;;;;5078889;28;19921;-79
2021/08/05 09:51:10;;;;;;;;;;;19.20;99.90;;;;;;5079055;28;19921;-77
2021/08/05 09:56:37;;;;;;;;;;;19.20;99.90;;;;;;5078418;28;20338;-76
2021/08/05 09:59:05;;;;;;;;;;;19.20;99.90;;;;;;5078502;28;19935;-76
2021/08/05 10:01:34;;;;;;;;;;;19.30;99.90;;;;;;5078645;28;19930;-77
2021/08/05 10:04:17;;;;;;;;;;;19.30;99.90;;;;;;5078792;28;19921;-76
2021/08/05 10:06:46;;;;;;;;;;;19.40;99.90;;;;;;5078753;28;19924;-76
2021/08/05 10:09:18;;;;;;;;;;;19.40;99.90;;;;;;5078485;28;19920;-76
2021/08/05 10:11:47;;;;;;;;;;;19.40;99.90;;;;;;5078539;28;19920;-77
2021/08/05 10:14:27;;;;;;;;;;;19.30;99.90;;;;;;5078515;28;19947;-77
2021/08/05 10:16:55;;;;;;;;;;;19.20;99.90;;;;;;5078490;28;19924;-77
2021/08/05 10:19:23;;;;;;;;;;;19.20;99.90;;;;;;5078431;28;19924;-77
2021/08/05 10:21:51;;;;;;;;;;;19.10;99.90;;;;;;5078103;28;19920;-76
2021/08/05 10:24:19;;;;;;;;;;;19.00;99.90;;;;;;5078067;28;19930;-76
2021/08/05 10:26:49;;;;;;;;;;;18.90;99.90;;;;;;5078213;28;19924;-80
2021/08/05 10:29:17;;;;;;;;;;;18.70;99.90;;;;;;5078389;28;19921;-78
2021/08/05 10:31:45;;;;;;;;;;;18.60;99.90;;;;;;5078042;28;19930;-78
2021/08/05 10:34:13;;;;;;;;;;;18.50;99.90;;;;;;5077943;28;19921;-77
2021/08/05 10:36:40;;;;;;;;;;;18.30;99.90;;;;;;5078029;28;19930;-82
2021/08/05 10:39:08;;;;;;;;;;;18.30;99.90;;;;;;5077811;28;19920;-81
2021/08/05 10:41:36;;;;;;;;;;;18.30;99.90;;;;;;5077574;28;19931;-80
2021/08/05 10:44:06;;;;;;;;;;;18.20;99.90;;;;;;5077648;28;20396;-80
2021/08/05 10:46:34;;;;;;;;;;;18.20;99.90;;;;;;5077412;28;20353;-81
2021/08/05 10:49:03;;;;;;;;;;;18.20;99.90;;;;;;5076660;28;19931;-82
2021/08/05 10:51:33;;;;;;;;;;;18.10;99.90;;;;;;5077739;28;19942;-82
2021/08/05 10:54:01;;;;;;;;;;;18.10;99.90;;;;;;5077604;28;19941;-81
2021/08/05 10:56:30;;;;;;;;;;;18.10;99.90;;;;;;5075109;28;19920;-81
2021/08/05 10:59:07;;;;;;;;;;;18.10;99.90;;;;;;5077448;28;19977;-82
2021/08/05 11:01:51;;;;;;;;;;;18.20;99.90;;;;;;5077582;28;19986;-83
2021/08/05 11:04:39;;;;;;;;;;;18.30;99.90;;;;;;5077658;28;19926;-84
2021/08/05 11:07:23;;;;;;;;;;;18.30;99.90;;;;;;5077003;28;19920;-82
2021/08/05 11:09:51;;;;;;;;;;;18.40;99.90;;;;;;5075894;28;19930;-83
2021/08/05 11:12:38;;;;;;;;;;;18.40;99.90;;;;;;5077259;28;19931;-83
2021/08/05 11:15:07;;;;;;;;;;;18.50;99.90;;;;;;5077413;28;19931;-83
2021/08/05 11:17:33;;;;;;;;;;;18.50;99.90;;;;;;5076977;28;19934;-83
2021/08/05 11:20:16;;;;;;;;;;;18.50;99.90;;;;;;5077038;28;19920;-83
2021/08/05 11:22:42;;;;;;;;;;;18.50;99.90;;;;;;5077174;28;19920;-83
2021/08/05 11:25:09;;;;;;;;;;;18.40;99.90;;;;;;5077187;28;19963;-83
2021/08/05 11:27:42;;;;;;;;;;;18.40;99.90;;;;;;5076994;28;19920;-83
2021/08/05 11:30:28;;;;;;;;;;;18.40;99.90;;;;;;5076879;28;19975;-83
2021/08/05 11:32:56;;;;;;;;;;;18.40;99.90;;;;;;5077056;28;20356;-88
2021/08/05 11:35:23;;;;;;;;;;;18.40;99.90;;;;;;5076872;28;19931;-77
2021/08/05 11:38:04;;;;;;;;;;;18.40;99.90;;;;;;5077119;28;20007;-77
2021/08/05 11:40:41;;;;;;;;;;;18.50;99.90;;;;;;5076948;28;20368;-77
2021/08/05 11:43:17;;;;;;;;;;;18.50;99.90;;;;;;5076245;28;20324;-77
2021/08/05 11:46:03;;;;;;;;;;;18.50;99.90;;;;;;5076558;28;19920;-76
2021/08/05 11:48:38;;;;;;;;;;;18.50;99.90;;;;;;5077127;28;19947;-76
2021/08/05 11:51:05;;;;;;;;;;;18.70;99.90;;;;;;5076812;28;19920;-76
2021/08/05 11:53:33;;;;;;;;;;;18.80;99.90;;;;;;5076383;28;19931;-78
2021/08/05 11:56:09;;;;;;;;;;;18.90;99.90;;;;;;5076515;28;19931;-77
2021/08/05 11:58:41;;;;;;;;;;;18.90;99.90;;;;;;5076430;28;19921;-77
2021/08/05 12:01:11;;;;;;;;;;;18.90;99.90;;;;;;5076010;28;19920;-77
2021/08/05 12:03:40;;;;;;;;;;;19.10;99.90;;;;;;5076181;28;19921;-76
2021/08/05 12:06:06;;;;;;;;;;;19.40;99.90;;;;;;5076076;28;19921;-78
2021/08/05 12:08:33;;;;;;;;;;;19.50;99.90;;;;;;5076214;28;19924;-78
2021/08/05 12:11:00;;;;;;;;;;;19.60;99.90;;;;;;5076405;28;19920;-76
2021/08/05 12:13:27;;;;;;;;;;;19.50;99.90;;;;;;5076046;28;20368;-77
2021/08/05 12:15:55;;;;;;;;;;;19.40;99.90;;;;;;5075951;28;19924;-77
2021/08/05 12:18:22;;;;;;;;;;;19.30;99.90;;;;;;5075924;28;19978;-82
2021/08/05 12:20:51;;;;;;;;;;;19.20;99.90;;;;;;5075136;28;20356;-78
2021/08/05 12:23:21;;;;;;;;;;;19.10;99.90;;;;;;5075916;28;19920;-78
2021/08/05 12:25:50;;;;;;;;;;;19.10;99.90;;;;;;5075758;28;19928;-77
2021/08/05 12:28:17;;;;;;;;;;;19.10;99.90;;;;;;5075757;28;19920;-78
2021/08/05 12:30:45;;;;;;;;;;;19.20;99.90;;;;;;5075779;28;19924;-78
2021/08/05 12:33:13;;;;;;;;;;;19.20;99.90;;;;;;5075663;28;20349;-80
2021/08/05 12:35:41;;;;;;;;;;;19.20;99.90;;;;;;5075630;28;19931;-78
2021/08/05 12:38:10;;;;;;;;;;;19.10;99.90;;;;;;5075757;28;20329;-78
2021/08/05 12:40:40;;;;;;;;;;;19.00;99.90;;;;;;5075783;28;19920;-78
2021/08/05 12:43:08;;;;;;;;;;;18.80;99.90;;;;;;5075425;28;20380;-79
2021/08/05 12:45:40;;;;;;;;;;;18.70;99.90;;;;;;5075218;28;20269;-79
2021/08/05 12:48:08;;;;;;;;;;;18.60;99.90;;;;;;5075062;28;20122;-80
2021/08/05 12:50:42;;;;;;;;;;;18.40;99.90;;;;;;5075556;28;19921;-79
2021/08/05 12:53:11;;;;;;;;;;;18.30;99.90;;;;;;5075436;28;19921;-81
2021/08/05 12:55:51;;;;;;;;;;;18.10;99.90;;;;;;5075519;28;19920;-79
2021/08/05 12:58:20;;;;;;;;;;;18.00;99.90;;;;;;5075292;28;20349;-80
2021/08/05 13:00:47;;;;;;;;;;;17.90;99.90;;;;;;5075513;28;19924;-79
2021/08/05 13:03:14;;;;;;;;;;;17.90;99.90;;;;;;5075229;28;19939;-79
2021/08/05 13:05:57;;;;;;;;;;;17.90;99.90;;;;;;5075367;28;20265;-79
2021/08/05 13:08:39;;;;;;;;;;;18.00;99.90;;;;;;5075204;28;19934;-79
2021/08/05 13:11:07;;;;;;;;;;;18.00;99.90;;;;;;5074740;28;20057;-78
2021/08/05 13:13:54;;;;;;;;;;;18.00;99.90;;;;;;5075107;28;20245;-78
2021/08/05 13:16:25;;;;;;;;;;;17.90;99.90;;;;;;5075132;28;19928;-80
2021/08/05 13:19:11;;;;;;;;;;;17.90;99.90;;;;;;5075086;28;19935;-79
2021/08/05 13:21:56;;;;;;;;;;;17.90;99.90;;;;;;5075126;28;20027;-79
2021/08/05 13:24:28;;;;;;;;;;;17.90;99.90;;;;;;5075122;28;20296;-79
2021/08/05 13:26:57;;;;;;;;;;;17.90;99.90;;;;;;5075042;28;19920;-80
2021/08/05 13:29:44;;;;;;;;;;;18.00;99.90;;;;;;5074973;28;19924;-79
2021/08/05 13:32:14;;;;;;;;;;;18.10;99.90;;;;;;5075271;28;20023;-79
2021/08/05 13:34:59;;;;;;;;;;;18.10;99.90;;;;;;5075313;28;19920;-79
2021/08/05 13:37:28;;;;;;;;;;;18.10;99.90;;;;;;5074016;28;19931;-80
2021/08/05 13:39:57;;;;;;;;;;;18.20;99.90;;;;;;5075128;28;20015;-80
2021/08/05 13:42:26;;;;;;;;;;;18.20;99.90;;;;;;5074828;28;20333;-79
2021/08/05 13:44:54;;;;;;;;;;;18.20;99.90;;;;;;5075036;28;19931;-79
2021/08/05 13:47:21;;;;;;;;;;;18.20;99.90;;;;;;5074605;28;19920;-80
2021/08/05 13:49:49;;;;;;;;;;;18.30;99.90;;;;;;5074780;28;19931;-80
2021/08/05 13:52:16;;;;;;;;;;;18.30;99.90;;;;;;5074799;28;19920;-80
2021/08/05 13:54:43;;;;;;;;;;;18.50;99.90;;;;;;5074217;28;19932;-80
2021/08/05 13:57:12;;;;;;;;;;;18.70;99.90;;;;;;5074551;28;20015;-80
2021/08/05 13:59:39;;;;;;;;;;;18.80;99.90;;;;;;5074956;28;20003;-80
2021/08/05 14:02:05;;;;;;;;;;;19.00;99.90;;;;;;5074570;28;20362;-80
2021/08/05 14:04:32;;;;;;;;;;;19.00;99.90;;;;;;5074557;28;19927;-80
2021/08/05 14:06:59;;;;;;;;;;;19.00;99.90;;;;;;5074644;28;19931;-79
2021/08/05 14:09:26;;;;;;;;;;;18.90;99.90;;;;;;5074531;28;19954;-80
2021/08/05 14:11:53;;;;;;;;;;;18.80;99.90;;;;;;5074736;28;20281;-81
2021/08/05 14:14:21;;;;;;;;;;;18.80;99.90;;;;;;5074364;28;19927;-80
2021/08/05 14:16:48;;;;;;;;;;;18.70;99.90;;;;;;5074869;28;19931;-80
2021/08/05 14:19:15;;;;;;;;;;;18.60;99.90;;;;;;5074616;28;19931;-80